エドワルド ゴメス国際空港(マナウス)の過去48時間の天気

エドワルド ゴメス国際空港(マナウス) (Eduardo Gomes International)

現在時刻: 9/28 03:59 -04 (9/28 07:59 UTC) 以下の時間は現地時間です。

過去48時間のMETAR気象情報
時間 風向 風速(m/s) 視程 気温(℃) 湿度(%) 気圧(hPa) 天気現象
28 03:00 静穏 0 10km以上 23 100 1009
28 02:00 静穏 0 10km以上 24 94 1009
28 01:00 静穏 0 10km以上 24 94 1010
28 00:00 静穏 0 10km以上 24 94 1011
27 23:00 静穏 0 10km以上 24 94 1011
27 22:00 静穏 0 10km以上 25 89 1011
27 21:00 北西 2 10km以上 26 84 1010
27 20:00 北東 1 10km以上 27 79 1010
27 19:00 北西 2 10km以上 27 84 1009
27 18:00 北北西 1 10km以上 27 89 1007
27 17:00 北北西 1 10km以上 28 89 1007
27 16:00 北西 1 10km以上 28 89 1007 周辺でしゅう雨
27 15:00 東北東 2 10km以上 30 66 1008 周辺でしゅう雨
27 14:15 西北西 2 10km以上 26 84 1008 周辺でしゅう雨
27 14:00 北北西 5 10km以上 26 89 1009 弱い雷雨
27 13:30 2 6000m 30 70 1010 弱い雷雨
27 13:00 南南東 3 10km以上 31 66 1010
27 12:00 2 10km以上 32 59 1012
27 11:00 1 10km以上 31 59 1012
27 10:00 南南西 2 10km以上 30 66 1013
27 09:00 南南西 1 10km以上 28 79 1013
27 08:00 西 2 10km以上 26 84 1012
27 07:00 北北西 1 10km以上 23 100 1011
27 06:00 北西 1 10km以上 22 100 1011
27 05:00 静穏 0 10km以上 23 94 1010
27 04:00 東北東 2 10km以上 23 100 1010
27 03:00 静穏 0 10km以上 24 94 1010
27 02:00 静穏 0 10km以上 23 100 1011
27 01:00 東南東 1 10km以上 24 94 1011
27 00:00 静穏 0 10km以上 23 100 1013
26 23:00 静穏 0 10km以上 23 100 1012
26 22:00 静穏 0 10km以上 24 94 1013
26 21:00 2 10km以上 23 100 1012
26 20:00 南東 2 10km以上 24 94 1011
26 19:00 2 10km以上 24 94 1010
26 18:00 静穏 0 10km以上 25 89 1009
26 17:00 東南東 2 10km以上 26 79 1009
26 16:00 東南東 2 10km以上 26 84 1009
26 15:00 静穏 0 10km以上 27 74 1010
26 14:00 東南東 3 10km以上 25 83 1011
26 13:00 北西 4 10km以上 24 94 1011
26 12:00 西北西 5 10km以上 23 94 1013
26 11:00 北西 3 8000m 22 100 1015 弱い雨
26 10:00 1 10km以上 22 94 1017 弱い雨
26 09:20 北東 4 5000m 22 94 1017 弱い雨
26 09:00 北東 4 4000m 22 100 1016 弱い雷雨
26 08:35 北東 5 3000m 22 100 1016 雷雨
26 08:10 東北東 5 1500m 22 100 1015 強い雷雨 雨
26 08:00 東北東 5 3000m 22 100 1015
26 07:40 5 3000m 23 94 1015
26 07:00 西北西 1 10km以上 23 94 1013
26 06:00 北西 2 10km以上 22 100 1012
26 05:00 西 2 10km以上 22 100 1012 周辺で雷
26 04:41 北西 3 6000m 22 100 1012 弱い雨 周辺で雷
26 04:16 東北東 2 2000m 23 94 1012 強い雨
26 04:00 北西 3 10km以上 23 94 1012
SBEG 280700Z 00000KT CAVOK 23/23 Q1009
SBEG 280600Z 00000KT CAVOK 24/23 Q1009
SBEG 280500Z 00000KT CAVOK 24/23 Q1010
SBEG 280400Z 00000KT CAVOK 24/23 Q1011
SBEG 280300Z 00000KT CAVOK 24/23 Q1011
SBEG 280200Z 00000KT CAVOK 25/23 Q1011
SBEG 280100Z 32004KT CAVOK 26/23 Q1010
SBEG 280000Z 05001KT CAVOK 27/23 Q1010
SBEG 272300Z 32004KT CAVOK 27/24 Q1009
SBEG 272200Z 33002KT 9999 FEW025 FEW030TCU BKN100 27/25 Q1007
SBEG 272100Z 34002KT 9999 SCT025 FEW030TCU SCT100 28/26 Q1007
SBEG 272000Z 32002KT 9999 VCSH SCT025 FEW030TCU SCT100 28/26 Q1007
SBEG 271900Z 06003KT 9999 VCSH SCT025 FEW030TCU SCT100 30/23 Q1008
SBEG 271815Z 30003KT 9999 VCSH FEW025TCU SCT025 SCT100 26/23 Q1008 RETS
SBEG 271800Z 34009KT 9999 -TSRA SCT025 FEW030CB BKN100 26/24 Q1009
SBEG 271730Z 18003KT 6000 -TSRA SCT025 FEW030CB BKN100 30/24 Q1010
SBEG 271700Z 16006KT 9999 SCT025 FEW030TCU SCT100 31/24 Q1010
SBEG 271600Z 18004KT 9999 SCT025 32/23 Q1012
SBEG 271500Z 10002KT 9999 FEW020 31/22 Q1012
SBEG 271400Z 20003KT 9999 FEW020 30/23 Q1013
SBEG 271300Z 21002KT 9999 FEW015 SCT100 28/24 Q1013
SBEG 271200Z 26003KT 9999 FEW012 BKN100 26/23 Q1012
SBEG 271100Z 34001KT 9999 FEW010 BKN100 23/23 Q1011
SBEG 271000Z 31001KT CAVOK 22/22 Q1011
SBEG 270900Z 00000KT 9999 FEW010 23/22 Q1010
SBEG 270800Z 06003KT 9999 FEW010 23/23 Q1010
SBEG 270700Z 00000KT 9999 FEW010 24/23 Q1010
SBEG 270600Z 00000KT 9999 FEW010 23/23 Q1011
SBEG 270500Z 12002KT 9999 FEW014 24/23 Q1011
SBEG 270400Z 00000KT 9999 FEW015 23/23 Q1013
SBEG 270300Z 00000KT 9999 FEW015 23/23 Q1012
SBEG 270200Z 00000KT 9999 FEW015 24/23 Q1013
SBEG 270100Z 35003KT 9999 FEW012 23/23 Q1012
SBEG 270000Z 14003KT 9999 FEW012 24/23 Q1011
SBEG 262300Z 08004KT 9999 FEW012 24/23 Q1010
SBEG 262200Z 00000KT 9999 FEW015 25/23 Q1009
SBEG 262100Z 11003KT 9999 SCT015 BKN100 26/22 Q1009
SBEG 262000Z 12004KT 9999 SCT012 BKN100 26/23 Q1009
SBEG 261900Z 00000KT 9999 SCT012 BKN100 27/22 Q1010
SBEG 261800Z 12005KT 9999 SCT012 BKN090 25/22 Q1011
SBEG 261700Z 31007KT 9999 SCT008 BKN080 24/23 Q1011
SBEG 261600Z 30010KT 9999 SCT004 SCT017 BKN070 23/22 Q1013
SBEG 261500Z 31005KT 8000 -RA FEW004 OVC070 22/22 Q1015
SBEG 261400Z 08002KT 9999 -RA FEW004 BKN050 BKN070 22/21 Q1017
SBEG 261320Z 05008KT 5000 -RA SCT003 FEW025TCU BKN040 BKN070 22/21 Q1017 RETS
SBEG 261300Z 05007KT 4000 -TSRA BKN004 SCT012 FEW025CB BKN040 22/22 Q1016 RETSRA
SBEG 261235Z 05009KT 3000 TSRA SCT003 BKN012 FEW025CB BKN040 22/22 Q1016 RETSRA
SBEG 261210Z 06010KT 1500 +TSRA FEW003 BKN012 FEW025CB BKN040 22/22 Q1015 RETS RERA
SBEG 261200Z 06009KT 3000 RA BKN012 FEW025TCU BKN040 22/22 Q1015 RERA
SBEG 261140Z 09009KT 3000 RA SCT012 FEW025TCU BKN040 BKN080 23/22 Q1015
SBEG 261100Z 30001KT 9999 SCT012 FEW025TCU BKN040 BKN080 23/22 Q1013
SBEG 261000Z 31003KT 9999 BKN020 FEW025TCU BKN070 22/22 Q1012
SBEG 260900Z 27004KT 9999 VCTS SCT018 FEW025CB BKN070 22/22 Q1012
SBEG 260841Z 31005KT 6000 -RA VCTS SCT015 FEW025CB BKN070 22/22 Q1012 RERA
SBEG 260816Z 06004KT 2000 +RA BKN015 FEW025TCU BKN080 23/22 Q1012
SBEG 260800Z 32005KT 9999 BKN015 FEW025TCU BKN080 23/22 Q1012